Time;durP1;ratioP1;P1;durP2;ratioP2;P2;SDS_P1;SDS_P2;PMS_P1;PMS_P2;Temp;Humidity;BMP_temperature;BMP_pressure;BME280_temperature;BME280_humidity;BME280_pressure;Samples;Min_cycle;Max_cycle;Signal;HPM_P1;HPM_P2
2022/02/28 00:01:54;;;;;;;1.25;0.60;;;;;28.10;100175.00;;;;4838447;29;20054;-83
2022/02/28 00:04:27;;;;;;;0.10;0.10;;;;;27.80;100220.00;;;;4838540;29;20822;-81
2022/02/28 00:06:56;;;;;;;0.00;0.00;;;;;27.50;100225.00;;;;4838586;29;20081;-81
2022/02/28 00:09:28;;;;;;;0.00;0.00;;;;;27.10;100219.00;;;;4838695;29;20050;-82
2022/02/28 00:11:58;;;;;;;0.10;0.10;;;;;26.70;100272.00;;;;4837785;29;20531;-83
2022/02/28 00:14:30;;;;;;;0.00;0.00;;;;;26.40;100348.00;;;;4838064;29;20053;-82
2022/02/28 00:16:59;;;;;;;2.65;0.82;;;;;26.40;100424.00;;;;4838526;29;20050;-82
2022/02/28 00:19:31;;;;;;;0.20;0.15;;;;;26.40;100442.00;;;;4821305;29;20088;-84
2022/02/28 00:22:01;;;;;;;0.50;0.20;;;;;26.20;100442.00;;;;4821523;29;20159;-82
2022/02/28 00:24:32;;;;;;;7.30;0.73;;;;;25.70;100429.00;;;;4820920;29;20129;-80
2022/02/28 00:27:02;;;;;;;0.00;0.00;;;;;24.40;100424.00;;;;4820805;29;20045;-80
2022/02/28 00:29:34;;;;;;;0.10;0.10;;;;;23.90;100450.00;;;;4837099;29;20534;-83
2022/02/28 00:32:04;;;;;;;0.00;0.00;;;;;23.50;100468.00;;;;4815966;29;20150;-82
2022/02/28 00:34:35;;;;;;;0.00;0.00;;;;;23.00;100475.00;;;;4831461;29;20042;-81
2022/02/28 00:37:05;;;;;;;3.20;0.32;;;;;22.60;100450.00;;;;4828502;29;20050;-82
2022/02/28 00:39:37;;;;;;;0.13;0.00;;;;;22.20;100430.00;;;;4818115;29;20055;-81
2022/02/28 00:42:06;;;;;;;0.10;0.10;;;;;22.10;100416.00;;;;4819522;29;20434;-79
2022/02/28 00:44:39;;;;;;;0.05;0.03;;;;;22.10;100397.00;;;;4819175;29;20043;-78
2022/02/28 00:47:09;;;;;;;0.00;0.00;;;;;22.10;100370.00;;;;4820064;29;20061;-76
2022/02/28 00:49:39;;;;;;;0.45;0.28;;;;;22.30;100295.00;;;;4829997;29;20064;-77
2022/02/28 00:52:10;;;;;;;1.38;0.50;;;;;22.20;100238.00;;;;4820497;29;20057;-78
2022/02/28 00:54:41;;;;;;;0.00;0.00;;;;;22.00;100208.00;;;;4820261;29;20483;-79
2022/02/28 00:57:11;;;;;;;0.00;0.00;;;;;21.90;100186.00;;;;4819152;29;20066;-76
2022/02/28 00:59:43;;;;;;;0.00;0.00;;;;;21.80;100182.00;;;;4818872;29;20515;-77
2022/02/28 01:02:12;;;;;;;0.00;0.00;;;;;21.90;100155.00;;;;4818996;29;20448;-78
2022/02/28 01:04:45;;;;;;;0.10;0.10;;;;;21.90;100136.00;;;;4817838;29;20508;-77
2022/02/28 01:07:14;;;;;;;0.00;0.00;;;;;21.80;100113.00;;;;4819174;29;20046;-79
2022/02/28 01:09:46;;;;;;;0.08;0.08;;;;;21.70;100085.00;;;;4817849;29;20152;-76
2022/02/28 01:12:16;;;;;;;0.03;0.03;;;;;21.70;100095.00;;;;4825119;29;20053;-82
2022/02/28 01:14:48;;;;;;;0.00;0.00;;;;;21.80;100100.00;;;;4837852;29;20042;-83
2022/02/28 01:17:18;;;;;;;0.00;0.00;;;;;21.80;100093.00;;;;4838301;29;20133;-82
2022/02/28 01:19:50;;;;;;;0.00;0.00;;;;;21.70;100079.00;;;;4820315;29;20065;-84
2022/02/28 01:22:19;;;;;;;0.00;0.00;;;;;21.70;100079.00;;;;4836875;29;20480;-82
2022/02/28 01:24:50;;;;;;;0.00;0.00;;;;;21.80;100052.00;;;;4821045;29;20115;-79
2022/02/28 01:27:19;;;;;;;0.00;0.00;;;;;21.80;100058.00;;;;4836571;29;20107;-82
2022/02/28 01:29:52;;;;;;;0.00;0.00;;;;;22.00;100065.00;;;;4815988;29;20070;-81
2022/02/28 01:32:22;;;;;;;0.00;0.00;;;;;22.00;100058.00;;;;4817809;29;20054;-83
2022/02/28 01:34:54;;;;;;;0.00;0.00;;;;;22.10;100050.00;;;;4831056;29;20076;-84
2022/02/28 01:37:24;;;;;;;0.00;0.00;;;;;22.20;100080.00;;;;4831430;29;20456;-82
2022/02/28 01:39:55;;;;;;;0.00;0.00;;;;;22.40;100099.00;;;;4826116;29;20462;-79
2022/02/28 01:42:25;;;;;;;0.00;0.00;;;;;22.80;100092.00;;;;4828593;29;20137;-79
2022/02/28 01:44:57;;;;;;;0.00;0.00;;;;;22.70;100060.00;;;;4826297;29;20053;-80
2022/02/28 01:47:27;;;;;;;0.00;0.00;;;;;22.80;100039.00;;;;4850631;29;20076;-79
2022/02/28 01:49:58;;;;;;;0.00;0.00;;;;;23.00;100025.00;;;;4836531;29;20057;-80
2022/02/28 01:52:28;;;;;;;0.00;0.00;;;;;23.00;100025.00;;;;4835597;29;20050;-80
2022/02/28 01:54:57;;;;;;;0.00;0.00;;;;;23.00;100051.00;;;;4814790;29;20042;-81
2022/02/28 01:57:29;;;;;;;0.00;0.00;;;;;22.90;100059.00;;;;4800956;29;20479;-81
2022/02/28 02:00:04;;;;;;;0.00;0.00;;;;;22.80;100063.00;;;;4801174;29;20070;-81
2022/02/28 02:02:41;;;;;;;0.00;0.00;;;;;22.70;100075.00;;;;4817775;29;20515;-81
2022/02/28 02:05:11;;;;;;;0.00;0.00;;;;;22.70;100067.00;;;;4818256;29;20051;-81
2022/02/28 02:07:42;;;;;;;0.00;0.00;;;;;22.70;100066.00;;;;4800762;29;20073;-83
2022/02/28 02:10:13;;;;;;;0.00;0.00;;;;;22.60;100082.00;;;;4819152;29;20038;-80
2022/02/28 02:12:44;;;;;;;0.00;0.00;;;;;22.70;100070.00;;;;4800513;29;20055;-83
2022/02/28 02:15:18;;;;;;;0.00;0.00;;;;;22.80;100076.00;;;;4784775;29;20069;-81
2022/02/28 02:17:48;;;;;;;0.00;0.00;;;;;22.80;100074.00;;;;4801117;29;20080;-81
2022/02/28 02:20:39;;;;;;;0.00;0.00;;;;;22.80;100070.00;;;;4817849;29;20125;-81
2022/02/28 02:23:12;;;;;;;0.00;0.00;;;;;22.60;100053.00;;;;4801400;29;20061;-83
2022/02/28 02:25:43;;;;;;;0.00;0.00;;;;;22.50;100041.00;;;;4800956;29;20489;-81
2022/02/28 02:28:22;;;;;;;0.00;0.00;;;;;22.50;100048.00;;;;4817553;29;20038;-82
2022/02/28 02:30:58;;;;;;;0.00;0.00;;;;;22.50;100042.00;;;;4801560;29;20067;-83
2022/02/28 02:33:28;;;;;;;0.00;0.00;;;;;22.40;100023.00;;;;4801348;29;20153;-81
2022/02/28 02:36:01;;;;;;;0.00;0.00;;;;;22.40;100017.00;;;;4817748;29;20054;-80
2022/02/28 02:38:34;;;;;;;0.00;0.00;;;;;22.40;100022.00;;;;4801075;29;20058;-82
2022/02/28 02:41:07;;;;;;;0.00;0.00;;;;;22.40;100003.00;;;;4801995;29;20103;-81
2022/02/28 02:43:37;;;;;;;0.00;0.00;;;;;22.40;100010.00;;;;4800994;29;20506;-82
2022/02/28 02:46:07;;;;;;;0.63;0.30;;;;;22.30;99997.00;;;;4818097;29;20053;-83
2022/02/28 02:48:37;;;;;;;0.00;0.00;;;;;22.30;99985.00;;;;4804759;29;20046;-82
2022/02/28 02:51:16;;;;;;;0.00;0.00;;;;;22.20;99970.00;;;;4805631;29;20138;-83
2022/02/28 02:53:49;;;;;;;0.00;0.00;;;;;22.40;99952.00;;;;4804634;29;20046;-83
2022/02/28 02:56:19;;;;;;;0.00;0.00;;;;;22.30;99974.00;;;;4805342;29;20054;-84
2022/02/28 02:58:49;;;;;;;0.00;0.00;;;;;22.50;99973.00;;;;4805023;29;20066;-84
2022/02/28 03:01:19;;;;;;;;;;;;;22.50;99963.00;;;;4805100;29;20185;-83
2022/02/28 03:03:49;;;;;;;0.00;0.00;;;;;22.30;99944.00;;;;4804823;29;19997;-84
2022/02/28 03:06:22;;;;;;;0.00;0.00;;;;;22.30;99946.00;;;;4804134;29;20055;-82
2022/02/28 03:08:51;;;;;;;0.00;0.00;;;;;22.50;99952.00;;;;4805097;29;20062;-84
2022/02/28 03:11:23;;;;;;;0.00;0.00;;;;;22.50;99943.00;;;;4821808;29;20057;-82
2022/02/28 03:13:52;;;;;;;0.00;0.00;;;;;22.50;99934.00;;;;4824385;29;20076;-82
2022/02/28 03:16:24;;;;;;;0.00;0.00;;;;;22.20;99944.00;;;;4808906;29;20382;-83
2022/02/28 03:18:54;;;;;;;0.00;0.00;;;;;22.00;99920.00;;;;4803947;29;20064;-83
2022/02/28 03:21:26;;;;;;;0.00;0.00;;;;;21.90;99904.00;;;;4803987;29;20058;-83
2022/02/28 03:23:56;;;;;;;0.00;0.00;;;;;21.80;99889.00;;;;4803541;29;20058;-83
2022/02/28 03:26:26;;;;;;;0.00;0.00;;;;;21.70;99868.00;;;;4804555;29;20107;-81
2022/02/28 03:28:56;;;;;;;0.00;0.00;;;;;21.70;99870.00;;;;4805024;29;20065;-80
2022/02/28 03:31:28;;;;;;;0.00;0.00;;;;;21.80;99860.00;;;;4820680;29;20560;-82
2022/02/28 03:33:58;;;;;;;0.00;0.00;;;;;21.80;99867.00;;;;4804183;29;20054;-83
2022/02/28 03:36:30;;;;;;;0.00;0.00;;;;;21.80;99852.00;;;;4803627;29;20062;-82
2022/02/28 03:39:08;;;;;;;0.00;0.00;;;;;21.70;99842.00;;;;4803470;29;20514;-82
2022/02/28 03:41:38;;;;;;;0.00;0.00;;;;;21.70;99854.00;;;;4803924;29;20064;-83
2022/02/28 03:44:09;;;;;;;0.00;0.00;;;;;21.80;99860.00;;;;4803901;29;20053;-83
2022/02/28 03:46:41;;;;;;;0.00;0.00;;;;;21.80;99881.00;;;;4804230;29;20050;-83
2022/02/28 03:49:18;;;;;;;0.00;0.00;;;;;21.70;99896.00;;;;4820294;29;20422;-83
2022/02/28 03:51:55;;;;;;;0.00;0.00;;;;;21.60;99868.00;;;;4804153;29;20618;-83
2022/02/28 03:54:42;;;;;;;0.00;0.00;;;;;21.50;99875.00;;;;4819845;29;20064;-83
2022/02/28 03:57:12;;;;;;;0.00;0.00;;;;;21.60;99887.00;;;;4789258;29;20054;-83
2022/02/28 03:59:44;;;;;;;0.00;0.00;;;;;21.50;99892.00;;;;4802864;29;20050;-83
2022/02/28 04:02:14;;;;;;;0.00;0.00;;;;;21.50;99880.00;;;;4820070;29;20511;-84
2022/02/28 04:04:46;;;;;;;0.00;0.00;;;;;21.40;99893.00;;;;4803923;29;20126;-84
2022/02/28 04:07:17;;;;;;;0.00;0.00;;;;;21.40;99891.00;;;;4804308;29;20086;-83
2022/02/28 04:09:46;;;;;;;0.00;0.00;;;;;21.40;99901.00;;;;4802986;29;20633;-83
2022/02/28 04:12:16;;;;;;;0.00;0.00;;;;;21.40;99908.00;;;;4819914;29;20054;-83
2022/02/28 04:14:46;;;;;;;0.00;0.00;;;;;21.30;99899.00;;;;4803431;29;20063;-84
2022/02/28 04:17:15;;;;;;;0.00;0.00;;;;;21.20;99913.00;;;;4803566;29;20077;-83
2022/02/28 04:20:06;;;;;;;0.00;0.00;;;;;21.20;99915.00;;;;4809119;29;20070;-84
2022/02/28 04:22:36;;;;;;;0.00;0.00;;;;;21.10;99911.00;;;;4803457;29;20530;-83
2022/02/28 04:25:09;;;;;;;0.00;0.00;;;;;21.10;99910.00;;;;4803177;29;20061;-83
2022/02/28 04:27:39;;;;;;;0.00;0.00;;;;;21.10;99912.00;;;;4803351;29;20103;-83
2022/02/28 04:30:13;;;;;;;0.00;0.00;;;;;21.00;99898.00;;;;4803819;29;20095;-84
2022/02/28 04:32:43;;;;;;;0.00;0.00;;;;;21.00;99892.00;;;;4802945;29;20054;-84
2022/02/28 04:35:17;;;;;;;0.00;0.00;;;;;21.00;99877.00;;;;4803217;29;20153;-84
2022/02/28 04:38:05;;;;;;;0.00;0.00;;;;;21.00;99879.00;;;;4802775;29;20142;-83
2022/02/28 04:40:36;;;;;;;0.00;0.00;;;;;21.00;99876.00;;;;4803138;29;20143;-84
2022/02/28 04:43:08;;;;;;;0.00;0.00;;;;;21.00;99867.00;;;;4803417;29;20059;-84
2022/02/28 04:45:38;;;;;;;0.00;0.00;;;;;21.00;99858.00;;;;4803251;29;20050;-84
2022/02/28 04:48:07;;;;;;;0.00;0.00;;;;;20.90;99861.00;;;;4802930;29;20530;-84
2022/02/28 04:50:57;;;;;;;0.00;0.00;;;;;20.90;99861.00;;;;4818553;29;20054;-84
2022/02/28 04:53:28;;;;;;;0.00;0.00;;;;;20.90;99858.00;;;;4802926;29;20518;-84
2022/02/28 04:55:58;;;;;;;0.00;0.00;;;;;20.90;99872.00;;;;4802757;29;20050;-84
2022/02/28 04:58:28;;;;;;;0.00;0.00;;;;;20.90;99874.00;;;;4802383;29;20054;-84
2022/02/28 05:01:20;;;;;;;0.00;0.00;;;;;20.90;99866.00;;;;4819308;29;20073;-84
2022/02/28 05:03:53;;;;;;;0.00;0.00;;;;;20.90;99848.00;;;;4802328;29;20093;-84
2022/02/28 05:06:23;;;;;;;0.00;0.00;;;;;20.90;99850.00;;;;4803372;29;20046;-84
2022/02/28 05:08:56;;;;;;;0.40;0.10;;;;;20.90;99832.00;;;;4802582;29;20077;-84
2022/02/28 05:11:26;;;;;;;0.00;0.00;;;;;20.90;99818.00;;;;4801292;29;20415;-84
2022/02/28 05:14:01;;;;;;;0.00;0.00;;;;;20.90;99821.00;;;;4802237;29;20046;-84
2022/02/28 05:16:31;;;;;;;0.00;0.00;;;;;20.90;99818.00;;;;4802407;29;20530;-84
2022/02/28 05:19:01;;;;;;;0.00;0.00;;;;;20.90;99832.00;;;;4802141;29;20062;-84
2022/02/28 05:21:31;;;;;;;0.00;0.00;;;;;20.90;99811.00;;;;4802480;29;20050;-84
2022/02/28 05:24:03;;;;;;;0.00;0.00;;;;;21.30;99837.00;;;;4802267;29;20531;-83
2022/02/28 05:26:34;;;;;;;0.00;0.00;;;;;21.30;99842.00;;;;4802340;29;20470;-84
2022/02/28 05:29:05;;;;;;;0.00;0.00;;;;;21.30;99852.00;;;;4801889;29;20066;-84
2022/02/28 05:31:35;;;;;;;0.00;0.00;;;;;21.20;99855.00;;;;4802224;29;20438;-84
2022/02/28 05:34:23;;;;;;;0.00;0.00;;;;;21.20;99854.00;;;;4818535;29;20127;-84
2022/02/28 05:36:53;;;;;;;0.00;0.00;;;;;21.10;99860.00;;;;4801869;29;20058;-84
2022/02/28 05:39:40;;;;;;;0.00;0.00;;;;;21.00;99854.00;;;;4802274;29;20058;-84
2022/02/28 05:42:15;;;;;;;0.00;0.00;;;;;21.00;99825.00;;;;4817774;29;20075;-84
2022/02/28 05:44:48;;;;;;;0.00;0.00;;;;;20.90;99832.00;;;;4815405;29;20054;-84
2022/02/28 05:47:17;;;;;;;0.00;0.00;;;;;20.90;99845.00;;;;4801997;29;20057;-84
2022/02/28 05:49:49;;;;;;;0.00;0.00;;;;;20.90;99853.00;;;;4801235;29;20054;-84
2022/02/28 05:52:20;;;;;;;0.00;0.00;;;;;20.80;99857.00;;;;4802016;29;20057;-84
2022/02/28 05:54:50;;;;;;;0.00;0.00;;;;;20.90;99874.00;;;;4818151;29;20038;-84
2022/02/28 05:57:22;;;;;;;0.00;0.00;;;;;20.90;99864.00;;;;4802531;29;20065;-84
2022/02/28 05:59:51;;;;;;;0.00;0.00;;;;;21.00;99870.00;;;;4818758;29;20110;-84
2022/02/28 06:02:21;;;;;;;0.00;0.00;;;;;21.10;99880.00;;;;4802055;29;20518;-85
2022/02/28 06:04:50;;;;;;;0.00;0.00;;;;;21.20;99898.00;;;;4818346;29;20057;-84
2022/02/28 06:07:19;;;;;;;0.00;0.00;;;;;21.20;99900.00;;;;4818417;29;20404;-87
2022/02/28 06:09:49;;;;;;;0.00;0.00;;;;;21.20;99904.00;;;;4818629;29;20057;-86
2022/02/28 06:12:18;;;;;;;0.00;0.00;;;;;21.20;99915.00;;;;4818333;29;20069;-86
2022/02/28 06:14:48;;;;;;;0.00;0.00;;;;;21.30;99898.00;;;;4818143;29;20532;-86
2022/02/28 06:17:17;;;;;;;0.00;0.00;;;;;21.30;99901.00;;;;4802581;29;20065;-85
2022/02/28 06:19:47;;;;;;;0.00;0.00;;;;;21.30;99904.00;;;;4818988;29;20067;-85
2022/02/28 06:22:20;;;;;;;0.00;0.00;;;;;21.30;99895.00;;;;4818182;29;20129;-85
2022/02/28 06:24:50;;;;;;;;;;;;;21.30;99926.00;;;;4802153;29;20119;-86
2022/02/28 06:27:22;;;;;;;0.00;0.00;;;;;21.30;99910.00;;;;4817495;29;19925;-86
2022/02/28 06:29:52;;;;;;;0.00;0.00;;;;;21.30;99934.00;;;;4818379;29;20047;-85
2022/02/28 06:32:22;;;;;;;0.00;0.00;;;;;21.30;99926.00;;;;4818404;29;20125;-85
2022/02/28 06:34:51;;;;;;;0.00;0.00;;;;;21.20;99915.00;;;;4801587;29;20435;-85
2022/02/28 06:37:21;;;;;;;0.00;0.00;;;;;21.20;99924.00;;;;4801496;29;20054;-84
2022/02/28 06:39:51;;;;;;;0.00;0.00;;;;;21.10;99939.00;;;;4801022;29;20379;-85
2022/02/28 06:42:20;;;;;;;0.00;0.00;;;;;21.00;99946.00;;;;4818321;29;20055;-84
2022/02/28 06:44:50;;;;;;;0.00;0.00;;;;;21.10;99920.00;;;;4802028;29;20490;-85
2022/02/28 06:47:19;;;;;;;0.00;0.00;;;;;21.00;99913.00;;;;4818041;29;20070;-85
2022/02/28 06:49:49;;;;;;;0.00;0.00;;;;;21.00;99925.00;;;;4801548;29;20146;-85
2022/02/28 06:52:18;;;;;;;0.00;0.00;;;;;21.00;99927.00;;;;4818171;29;20061;-86
2022/02/28 06:54:49;;;;;;;0.00;0.00;;;;;21.00;99943.00;;;;4801388;29;20412;-85
2022/02/28 06:57:18;;;;;;;0.00;0.00;;;;;21.00;99945.00;;;;4818285;29;20042;-83
2022/02/28 06:59:48;;;;;;;0.00;0.00;;;;;21.10;99952.00;;;;4801138;29;20629;-85
2022/02/28 07:02:18;;;;;;;0.00;0.00;;;;;21.10;99942.00;;;;4801261;29;20157;-85
2022/02/28 07:04:58;;;;;;;;;;;;;21.20;99956.00;;;;4803763;29;20050;-85
2022/02/28 07:07:28;;;;;;;0.00;0.00;;;;;21.30;99940.00;;;;4801655;29;19980;-84
2022/02/28 07:09:58;;;;;;;0.00;0.00;;;;;21.50;99936.00;;;;4801658;29;20410;-84
2022/02/28 07:12:27;;;;;;;0.00;0.00;;;;;21.80;99946.00;;;;4817516;29;20132;-83
2022/02/28 07:14:58;;;;;;;0.05;0.05;;;;;21.90;99942.00;;;;4818370;29;20042;-86
2022/02/28 07:17:27;;;;;;;0.00;0.00;;;;;21.80;99934.00;;;;4801745;29;20077;-86
2022/02/28 07:19:57;;;;;;;0.00;0.00;;;;;21.70;99927.00;;;;4817478;29;20066;-85
2022/02/28 07:22:27;;;;;;;0.00;0.00;;;;;21.60;99920.00;;;;4800811;29;20064;-84
2022/02/28 07:24:57;;;;;;;0.00;0.00;;;;;21.70;99908.00;;;;4817243;29;20042;-87
2022/02/28 07:27:26;;;;;;;0.00;0.00;;;;;21.70;99918.00;;;;4817432;29;20050;-85
2022/02/28 07:29:56;;;;;;;0.00;0.00;;;;;21.80;99903.00;;;;4817400;29;20558;-86
2022/02/28 07:32:26;;;;;;;0.00;0.00;;;;;21.80;99903.00;;;;4817495;29;20161;-86
2022/02/28 07:34:56;;;;;;;0.00;0.00;;;;;21.80;99905.00;;;;4789508;29;20058;-85
2022/02/28 07:37:25;;;;;;;0.00;0.00;;;;;22.00;99918.00;;;;4821000;29;20054;-86
2022/02/28 07:39:55;;;;;;;0.00;0.00;;;;;22.10;99918.00;;;;4804889;29;20066;-86
2022/02/28 07:42:24;;;;;;;0.00;0.00;;;;;22.20;99932.00;;;;4803933;29;20544;-84
2022/02/28 07:44:54;;;;;;;0.00;0.00;;;;;22.30;99936.00;;;;4820388;29;20137;-86
2022/02/28 07:47:24;;;;;;;0.00;0.00;;;;;22.20;99930.00;;;;4820968;29;20086;-85
2022/02/28 07:49:53;;;;;;;0.00;0.00;;;;;22.10;99941.00;;;;4820286;29;20645;-86
2022/02/28 07:52:23;;;;;;;0.00;0.00;;;;;22.10;99946.00;;;;4820187;29;20055;-84
2022/02/28 07:54:52;;;;;;;0.00;0.00;;;;;22.00;99947.00;;;;4804678;29;20059;-87
2022/02/28 07:57:21;;;;;;;0.00;0.00;;;;;21.90;99955.00;;;;4820626;29;20061;-87
2022/02/28 07:59:51;;;;;;;0.00;0.00;;;;;21.80;99950.00;;;;4820667;29;21014;-85
2022/02/28 08:02:21;;;;;;;0.00;0.00;;;;;21.80;99979.00;;;;4820441;29;20050;-87
2022/02/28 08:04:52;;;;;;;0.00;0.00;;;;;21.70;99987.00;;;;4803985;29;20557;-85
2022/02/28 08:07:21;;;;;;;0.00;0.00;;;;;21.70;99990.00;;;;4820536;29;20058;-85
2022/02/28 08:09:51;;;;;;;0.00;0.00;;;;;21.60;100007.00;;;;4820184;29;20069;-85
2022/02/28 08:12:20;;;;;;;0.00;0.00;;;;;21.50;100000.00;;;;4822999;29;20532;-85
2022/02/28 08:14:50;;;;;;;0.00;0.00;;;;;21.50;100013.00;;;;4810167;29;20062;-85
2022/02/28 08:17:20;;;;;;;0.00;0.00;;;;;21.50;100011.00;;;;4807774;29;20054;-85
2022/02/28 08:19:54;;;;;;;2.13;1.98;;;;;21.50;100004.00;;;;4804908;29;20057;-85
2022/02/28 08:22:24;;;;;;;0.00;0.00;;;;;21.50;100012.00;;;;4820333;29;20047;-86
2022/02/28 08:24:55;;;;;;;0.00;0.00;;;;;21.50;100022.00;;;;4804133;29;20054;-85
2022/02/28 08:27:26;;;;;;;0.00;0.00;;;;;21.40;100032.00;;;;4803604;29;20499;-84
2022/02/28 08:29:56;;;;;;;0.00;0.00;;;;;21.40;100004.00;;;;4820277;29;20054;-85
2022/02/28 08:32:26;;;;;;;0.00;0.00;;;;;21.40;100010.00;;;;4803176;29;20150;-85
2022/02/28 08:34:55;;;;;;;0.00;0.00;;;;;21.40;100028.00;;;;4819897;29;20061;-85
2022/02/28 08:37:25;;;;;;;0.00;0.00;;;;;21.30;100021.00;;;;4803130;29;20061;-85
2022/02/28 08:39:55;;;;;;;0.00;0.00;;;;;21.30;100034.00;;;;4819592;29;20050;-84
2022/02/28 08:42:24;;;;;;;0.00;0.00;;;;;21.50;100046.00;;;;4819133;29;20050;-85
2022/02/28 08:44:53;;;;;;;0.00;0.00;;;;;21.50;100035.00;;;;4819196;29;20058;-84
2022/02/28 08:47:23;;;;;;;0.00;0.00;;;;;21.50;100014.00;;;;4819858;29;20372;-87
2022/02/28 08:49:52;;;;;;;0.00;0.00;;;;;21.50;100038.00;;;;4803166;29;20501;-85
2022/02/28 08:52:22;;;;;;;0.00;0.00;;;;;21.40;100049.00;;;;4803529;29;20068;-85
2022/02/28 08:54:51;;;;;;;0.00;0.00;;;;;21.40;100077.00;;;;4803724;29;20058;-86
2022/02/28 08:57:21;;;;;;;0.00;0.00;;;;;21.40;100077.00;;;;4819667;29;20442;-85
2022/02/28 08:59:51;;;;;;;0.00;0.00;;;;;21.30;100055.00;;;;4819204;29;20039;-85
2022/02/28 09:02:23;;;;;;;0.00;0.00;;;;;21.30;100062.00;;;;4819671;29;20295;-86
2022/02/28 09:04:53;;;;;;;0.00;0.00;;;;;21.30;100074.00;;;;4802848;29;20546;-85
2022/02/28 09:07:25;;;;;;;0.00;0.00;;;;;21.30;100056.00;;;;4803541;29;20054;-86
2022/02/28 09:09:54;;;;;;;0.00;0.00;;;;;21.30;100067.00;;;;4818489;29;20462;-85
2022/02/28 09:12:27;;;;;;;0.00;0.00;;;;;21.30;100066.00;;;;4819078;29;20510;-84
2022/02/28 09:14:56;;;;;;;0.00;0.00;;;;;21.30;100068.00;;;;4819217;29;20100;-84
2022/02/28 09:17:26;;;;;;;0.00;0.00;;;;;21.20;100044.00;;;;4801972;29;20118;-85
2022/02/28 09:19:56;;;;;;;0.00;0.00;;;;;21.30;100052.00;;;;4802122;29;20077;-85
2022/02/28 09:22:26;;;;;;;0.00;0.00;;;;;21.40;100063.00;;;;4801745;29;20153;-86
2022/02/28 09:24:56;;;;;;;0.00;0.00;;;;;21.50;100061.00;;;;4802469;29;20526;-84
2022/02/28 09:27:27;;;;;;;0.00;0.00;;;;;21.60;100060.00;;;;4818946;29;20057;-86
2022/02/28 09:30:16;;;;;;;0.00;0.00;;;;;21.60;100062.00;;;;4819380;29;20046;-86
2022/02/28 09:32:51;;;;;;;0.00;0.00;;;;;21.50;100067.00;;;;4802669;29;20067;-85
2022/02/28 09:35:21;;;;;;;0.00;0.00;;;;;21.40;100070.00;;;;4819000;29;20136;-85
2022/02/28 09:37:51;;;;;;;0.00;0.00;;;;;21.40;100082.00;;;;4819414;29;20794;-85
2022/02/28 09:40:29;;;;;;;0.00;0.00;;;;;21.50;100075.00;;;;4802346;29;20141;-85
2022/02/28 09:43:05;;;;;;;0.00;0.00;;;;;21.50;100085.00;;;;4817944;29;20054;-85
2022/02/28 09:45:54;;;;;;;0.00;0.00;;;;;21.50;100102.00;;;;4818756;29;20107;-85
2022/02/28 09:49:09;;;;;;;0.00;0.00;;;;;21.40;100107.00;;;;4808729;29;20054;-85
2022/02/28 09:51:58;;;;;;;0.00;0.00;;;;;21.40;100115.00;;;;4819031;29;20414;-85
2022/02/28 09:54:46;;;;;;;0.00;0.00;;;;;21.40;100133.00;;;;4818278;29;20167;-84
2022/02/28 09:57:37;;;;;;;0.00;0.00;;;;;21.40;100136.00;;;;4807686;29;20157;-84
2022/02/28 10:00:27;;;;;;;0.00;0.00;;;;;21.40;100135.00;;;;4804263;29;20077;-85
2022/02/28 10:03:02;;;;;;;0.00;0.00;;;;;21.50;100110.00;;;;4801686;29;20057;-84
2022/02/28 10:05:33;;;;;;;0.00;0.00;;;;;21.70;100102.00;;;;4801461;29;20050;-83
2022/02/28 10:08:06;;;;;;;0.00;0.00;;;;;21.80;100094.00;;;;4801815;29;20064;-85
2022/02/28 10:10:36;;;;;;;0.00;0.00;;;;;21.70;100110.00;;;;4818504;29;20047;-85
2022/02/28 10:13:05;;;;;;;0.00;0.00;;;;;21.60;100122.00;;;;4819026;29;20046;-84
2022/02/28 10:15:35;;;;;;;0.00;0.00;;;;;21.60;100122.00;;;;4802363;29;20095;-84
2022/02/28 10:18:07;;;;;;;0.00;0.00;;;;;21.50;100136.00;;;;4817788;29;20062;-84
2022/02/28 10:20:39;;;;;;;0.00;0.00;;;;;21.50;100135.00;;;;4811038;29;20515;-86
2022/02/28 10:23:13;;;;;;;0.00;0.00;;;;;21.50;100122.00;;;;4818763;29;20066;-85
2022/02/28 10:25:57;;;;;;;0.00;0.00;;;;;21.60;100141.00;;;;4818691;29;20054;-84
2022/02/28 10:29:11;;;;;;;0.00;0.00;;;;;21.70;100128.00;;;;4818161;29;20142;-85
2022/02/28 10:32:02;;;;;;;0.00;0.00;;;;;21.80;100147.00;;;;4817614;29;20103;-85
2022/02/28 10:38:16;;;;;;;0.00;0.00;;;;;22.00;100252.00;;;;4818705;29;20057;-86
2022/02/28 10:40:54;;;;;;;0.00;0.00;;;;;22.00;100294.00;;;;4817978;29;20054;-83
2022/02/28 10:43:36;;;;;;;0.00;0.00;;;;;22.10;100330.00;;;;4817207;29;20042;-84
2022/02/28 10:46:26;;;;;;;0.00;0.00;;;;;22.20;100314.00;;;;4818539;29;20054;-82
2022/02/28 10:49:03;;;;;;;0.00;0.00;;;;;22.20;100308.00;;;;4812853;29;20051;-83
2022/02/28 10:51:48;;;;;;;0.30;0.25;;;;;22.10;100348.00;;;;4820926;29;20489;-83
2022/02/28 10:54:28;;;;;;;0.00;0.00;;;;;22.20;100338.00;;;;4802636;29;20572;-87
2022/02/28 10:57:05;;;;;;;0.00;0.00;;;;;22.30;100342.00;;;;4801038;29;20046;-89
2022/02/28 10:59:50;;;;;;;0.10;0.10;;;;;22.40;100342.00;;;;4801397;29;20069;-85
2022/02/28 11:02:27;;;;;;;0.00;0.00;;;;;22.40;100331.00;;;;4818204;29;20054;-84
2022/02/28 11:05:12;;;;;;;0.00;0.00;;;;;22.40;100314.00;;;;4801619;29;20078;-85
2022/02/28 11:07:43;;;;;;;0.00;0.00;;;;;22.50;100316.00;;;;4818683;29;20603;-88
2022/02/28 11:10:15;;;;;;;0.00;0.00;;;;;22.40;100302.00;;;;4820260;29;20051;-85
2022/02/28 11:12:46;;;;;;;0.00;0.00;;;;;22.40;100293.00;;;;4821023;29;20066;-86
2022/02/28 11:15:18;;;;;;;;;;;;;22.40;100299.00;;;;4805617;29;20055;-86
2022/02/28 11:17:50;;;;;;;0.10;0.10;;;;;22.40;100267.00;;;;4806022;29;20316;-87
2022/02/28 11:20:22;;;;;;;0.00;0.00;;;;;22.40;100251.00;;;;4804218;29;20057;-85
2022/02/28 11:22:52;;;;;;;0.15;0.10;;;;;22.40;100241.00;;;;4821546;29;20052;-87
2022/02/28 11:25:22;;;;;;;0.10;0.08;;;;;22.50;100231.00;;;;4803901;29;20061;-85
2022/02/28 11:27:52;;;;;;;0.00;0.00;;;;;22.60;100192.00;;;;4820833;29;20425;-85
2022/02/28 11:30:24;;;;;;;0.00;0.00;;;;;22.80;100188.00;;;;4804849;29;20111;-85
2022/02/28 11:32:57;;;;;;;0.00;0.00;;;;;23.00;100212.00;;;;4803881;29;20054;-85
2022/02/28 11:35:36;;;;;;;0.00;0.00;;;;;23.30;100190.00;;;;4820760;29;20054;-85
2022/02/28 11:38:18;;;;;;;0.00;0.00;;;;;23.60;100167.00;;;;4805467;29;20375;-86
2022/02/28 11:41:02;;;;;;;0.00;0.00;;;;;23.80;100151.00;;;;4804193;29;20054;-83
2022/02/28 11:43:45;;;;;;;0.00;0.00;;;;;23.90;100151.00;;;;4803653;29;20434;-87
2022/02/28 11:46:20;;;;;;;0.00;0.00;;;;;23.90;100167.00;;;;4804951;29;20046;-85
2022/02/28 11:48:56;;;;;;;0.00;0.00;;;;;24.00;100139.00;;;;4802882;29;20049;-85
2022/02/28 11:51:35;;;;;;;0.00;0.00;;;;;24.30;100176.00;;;;4819702;29;20220;-86
2022/02/28 11:54:16;;;;;;;0.00;0.00;;;;;24.30;100166.00;;;;4804588;29;20056;-84
2022/02/28 11:56:54;;;;;;;0.00;0.00;;;;;24.30;100172.00;;;;4804992;29;20526;-83
2022/02/28 11:59:28;;;;;;;0.00;0.00;;;;;24.40;100159.00;;;;4820782;29;20126;-88
2022/02/28 12:02:21;;;;;;;0.00;0.00;;;;;24.50;100163.00;;;;4804090;29;20550;-88
2022/02/28 12:04:51;;;;;;;0.00;0.00;;;;;24.60;100159.00;;;;4789334;29;20430;-85
2022/02/28 12:07:24;;;;;;;0.10;0.00;;;;;24.70;100145.00;;;;4820593;29;20057;-88
2022/02/28 12:10:03;;;;;;;0.40;0.05;;;;;24.70;100162.00;;;;4820243;29;20047;-83
2022/02/28 12:12:34;;;;;;;0.20;0.20;;;;;24.80;100153.00;;;;4819960;29;20042;-83
2022/02/28 12:15:04;;;;;;;0.00;0.00;;;;;24.80;100168.00;;;;4819459;29;20130;-85
2022/02/28 12:17:40;;;;;;;0.00;0.00;;;;;25.00;100170.00;;;;4819943;29;20133;-85
2022/02/28 12:20:22;;;;;;;0.00;0.00;;;;;25.20;100203.00;;;;4818877;29;20596;-84
2022/02/28 12:22:53;;;;;;;0.00;0.00;;;;;25.30;100185.00;;;;4803517;29;20066;-84
2022/02/28 12:25:52;;;;;;;0.00;0.00;;;;;25.60;100188.00;;;;4802790;29;20054;-84
2022/02/28 12:28:27;;;;;;;0.00;0.00;;;;;25.70;100182.00;;;;4819472;29;20054;-86
2022/02/28 12:31:02;;;;;;;0.00;0.00;;;;;25.70;100206.00;;;;4803170;29;20579;-85
2022/02/28 12:33:35;;;;;;;0.00;0.00;;;;;25.60;100210.00;;;;4803071;29;20046;-84
2022/02/28 12:36:08;;;;;;;0.00;0.00;;;;;25.70;100202.00;;;;4819966;29;20056;-86
2022/02/28 12:38:44;;;;;;;0.10;0.10;;;;;25.70;100174.00;;;;4819924;29;20050;-84
2022/02/28 12:41:17;;;;;;;0.00;0.00;;;;;26.00;100142.00;;;;4819422;29;20050;-87
2022/02/28 12:43:48;;;;;;;0.00;0.00;;;;;26.40;100123.00;;;;4819975;29;20046;-87
2022/02/28 12:46:27;;;;;;;0.00;0.00;;;;;26.60;100117.00;;;;4821980;29;20095;-87